createdAt,value
2022-09-12T00:02:04.438Z,100149.85
2022-09-12T00:04:31.833Z,100149.05
2022-09-12T00:06:59.083Z,100150.02
2022-09-12T00:09:26.333Z,100146.04
2022-09-12T00:11:53.492Z,100146.98
2022-09-12T00:14:20.938Z,100145.84
2022-09-12T00:16:48.325Z,100148.10
2022-09-12T00:19:15.752Z,100148.19
2022-09-12T00:21:43.196Z,100150.95
2022-09-12T00:24:11.776Z,100152.60
2022-09-12T00:26:39.453Z,100155.67
2022-09-12T00:29:06.913Z,100154.95
2022-09-12T00:31:34.178Z,100156.20
2022-09-12T00:34:02.013Z,100156.46
2022-09-12T00:36:30.782Z,100154.03
2022-09-12T00:38:59.399Z,100158.06
2022-09-12T00:41:28.591Z,100163.83
2022-09-12T00:43:58.784Z,100163.08
2022-09-12T00:46:53.091Z,100164.59
2022-09-12T00:49:26.193Z,100165.24
2022-09-12T00:51:57.992Z,100164.98
2022-09-12T00:54:30.100Z,100165.89
2022-09-12T00:57:02.246Z,100167.73
2022-09-12T00:59:42.552Z,100168.27
2022-09-12T01:02:11.292Z,100166.83
2022-09-12T01:04:39.393Z,100163.88
2022-09-12T01:07:07.157Z,100164.60
2022-09-12T01:09:35.101Z,100169.75
2022-09-12T01:12:02.794Z,100175.99
2022-09-12T01:14:30.446Z,100181.17
2022-09-12T01:16:57.605Z,100178.33
2022-09-12T01:19:33.493Z,100178.23
2022-09-12T01:22:08.481Z,100176.15
2022-09-12T01:24:51.925Z,100182.52
2022-09-12T01:27:37.714Z,100179.53
2022-09-12T01:30:39.892Z,100179.02
2022-09-12T01:33:19.715Z,100178.86
2022-09-12T01:36:11.136Z,100181.08
2022-09-12T01:39:07.991Z,100180.21
2022-09-12T01:41:43.948Z,100182.81
2022-09-12T01:44:24.711Z,100178.42
2022-09-12T01:47:08.972Z,100178.61
2022-09-12T01:49:41.252Z,100181.11
2022-09-12T01:52:16.393Z,100183.17
2022-09-12T01:55:09.823Z,100177.48
2022-09-12T01:57:53.492Z,100181.75
2022-09-12T02:00:20.953Z,100181.66
2022-09-12T02:02:53.422Z,100178.73
2022-09-12T02:05:26.713Z,100183.97
2022-09-12T02:08:06.652Z,100184.70
2022-09-12T02:10:41.593Z,100185.38
2022-09-12T02:13:20.501Z,100178.81
2022-09-12T02:15:54.196Z,100178.86
2022-09-12T02:18:21.872Z,100176.12
2022-09-12T02:20:49.759Z,100176.91
2022-09-12T02:23:27.087Z,100175.48
2022-09-12T02:25:58.264Z,100171.89
2022-09-12T02:28:31.436Z,100172.54
2022-09-12T02:31:33.532Z,100173.52
2022-09-12T02:34:13.584Z,100173.52
2022-09-12T02:36:43.913Z,100168.89
2022-09-12T02:39:11.156Z,100167.84
2022-09-12T02:41:38.403Z,100168.98
2022-09-12T02:44:05.972Z,100172.93
2022-09-12T02:46:43.317Z,100172.77
2022-09-12T02:49:10.632Z,100172.08
2022-09-12T02:51:38.269Z,100172.94
2022-09-12T02:54:08.113Z,100175.85
2022-09-12T02:56:35.663Z,100168.34
2022-09-12T02:59:06.113Z,100171.42
2022-09-12T03:01:33.448Z,100174.18
2022-09-12T03:04:27.611Z,100179.67
2022-09-12T03:07:04.692Z,100179.89
2022-09-12T03:10:10.452Z,100180.60
2022-09-12T03:12:56.553Z,100182.13
2022-09-12T03:15:37.836Z,100181.25
2022-09-12T03:18:32.731Z,100182.27
2022-09-12T03:21:07.753Z,100183.02
2022-09-12T03:23:46.680Z,100181.17
2022-09-12T03:26:42.613Z,100182.20
2022-09-12T03:29:11.901Z,100180.55
2022-09-12T03:31:51.746Z,100182.99
2022-09-12T03:34:19.833Z,100177.19
2022-09-12T03:36:46.972Z,100175.80
2022-09-12T03:39:14.093Z,100178.81
2022-09-12T03:41:41.267Z,100182.38
2022-09-12T03:44:08.624Z,100182.63
2022-09-12T03:46:36.092Z,100184.62
2022-09-12T03:49:03.530Z,100183.70
2022-09-12T03:51:31.401Z,100185.60
2022-09-12T03:53:58.446Z,100185.55
2022-09-12T03:56:25.913Z,100183.77
2022-09-12T03:58:53.056Z,100183.18
2022-09-12T04:01:20.787Z,100184.15
2022-09-12T04:03:50.525Z,100183.34
2022-09-12T04:06:20.061Z,100186.29
2022-09-12T04:08:55.072Z,100191.02
2022-09-12T04:11:22.856Z,100192.86
2022-09-12T04:13:50.300Z,100194.16
2022-09-12T04:16:18.416Z,100191.55
2022-09-12T04:18:46.829Z,100193.67
2022-09-12T04:21:16.987Z,100196.25
2022-09-12T04:23:44.415Z,100194.42
2022-09-12T04:26:14.037Z,100190.83
2022-09-12T04:28:41.963Z,100191.79
2022-09-12T04:31:13.664Z,100195.86
2022-09-12T04:33:40.913Z,100196.52
2022-09-12T04:36:10.921Z,100199.66
2022-09-12T04:38:39.038Z,100199.64
2022-09-12T04:41:27.260Z,100200.08
2022-09-12T04:44:02.580Z,100198.68
2022-09-12T04:46:31.407Z,100202.09
2022-09-12T04:48:58.932Z,100200.52
2022-09-12T04:51:32.481Z,100204.37
2022-09-12T04:54:20.372Z,100200.73
2022-09-12T04:56:49.326Z,100202.11
2022-09-12T04:59:18.245Z,100202.10
2022-09-12T05:01:45.287Z,100204.55
2022-09-12T05:04:16.233Z,100207.20
2022-09-12T05:06:43.373Z,100209.88
2022-09-12T05:09:14.391Z,100210.50
2022-09-12T05:12:03.843Z,100214.45
2022-09-12T05:14:33.302Z,100210.65
2022-09-12T05:17:02.069Z,100213.03
2022-09-12T05:19:30.874Z,100213.71
2022-09-12T05:21:58.655Z,100215.27
2022-09-12T05:24:26.206Z,100221.80
2022-09-12T05:26:53.529Z,100225.73
2022-09-12T05:29:20.813Z,100222.59
2022-09-12T05:31:50.621Z,100227.70
2022-09-12T05:34:18.408Z,100232.23
2022-09-12T05:36:45.526Z,100231.75
2022-09-12T05:39:12.787Z,100237.73
2022-09-12T05:41:39.921Z,100239.98
2022-09-12T05:44:08.208Z,100243.15
2022-09-12T05:46:40.384Z,100246.67
2022-09-12T05:49:10.311Z,100244.87
2022-09-12T05:51:40.011Z,100246.84
2022-09-12T05:54:09.111Z,100247.59
2022-09-12T05:56:44.329Z,100249.66
2022-09-12T05:59:19.540Z,100248.84
2022-09-12T06:01:47.725Z,100253.71
2022-09-12T06:04:15.532Z,100253.52
2022-09-12T06:06:47.176Z,100247.44
2022-09-12T06:09:16.467Z,100248.13
2022-09-12T06:11:44.826Z,100248.02
2022-09-12T06:14:14.641Z,100244.06
2022-09-12T06:16:42.483Z,100245.16
2022-09-12T06:19:17.959Z,100247.02
2022-09-12T06:21:45.997Z,100243.14
2022-09-12T06:24:13.294Z,100247.23
2022-09-12T06:26:40.737Z,100245.98
2022-09-12T06:29:08.810Z,100246.86
2022-09-12T06:31:37.724Z,100246.13
2022-09-12T06:34:09.553Z,100246.86
2022-09-12T06:36:44.834Z,100245.27
2022-09-12T06:39:15.061Z,100240.69
2022-09-12T06:41:44.218Z,100243.39
2022-09-12T06:44:17.134Z,100247.65
2022-09-12T06:46:44.992Z,100249.85
2022-09-12T06:49:12.702Z,100253.07
2022-09-12T06:51:42.352Z,100247.02
2022-09-12T06:54:11.064Z,100249.66
2022-09-12T06:56:38.712Z,100241.84
2022-09-12T06:59:05.942Z,100244.64
2022-09-12T07:01:33.768Z,100244.16
2022-09-12T07:04:03.421Z,100247.01
2022-09-12T07:06:36.311Z,100249.58
2022-09-12T07:09:06.089Z,100251.27
2022-09-12T07:11:35.406Z,100257.34
2022-09-12T07:14:04.359Z,100252.98
2022-09-12T07:16:31.870Z,100255.04
2022-09-12T07:19:01.299Z,100258.55
2022-09-12T07:21:29.431Z,100258.59
2022-09-12T07:23:58.359Z,100257.42
2022-09-12T07:26:29.469Z,100252.95
2022-09-12T07:29:18.765Z,100258.65
2022-09-12T07:31:46.112Z,100257.70
2022-09-12T07:34:14.362Z,100260.98
2022-09-12T07:36:41.513Z,100261.50
2022-09-12T07:39:08.992Z,100261.72
2022-09-12T07:41:36.540Z,100266.27
2022-09-12T07:44:05.032Z,100265.77
2022-09-12T07:46:32.472Z,100269.61
2022-09-12T07:49:01.048Z,100270.33
2022-09-12T07:51:30.193Z,100275.61
2022-09-12T07:53:57.922Z,100275.23
2022-09-12T07:56:30.201Z,100276.32
2022-09-12T07:58:59.294Z,100274.23
2022-09-12T08:01:27.340Z,100283.96
2022-09-12T08:03:57.347Z,100279.05
2022-09-12T08:06:26.072Z,100280.34
2022-09-12T08:08:55.160Z,100278.19
2022-09-12T08:11:23.624Z,100277.79
2022-09-12T08:13:55.459Z,100277.53
2022-09-12T08:16:25.107Z,100275.07
2022-09-12T08:18:52.448Z,100278.70
2022-09-12T08:21:22.151Z,100279.03
2022-09-12T08:23:56.594Z,100279.77
2022-09-12T08:26:23.931Z,100279.61
2022-09-12T08:28:51.490Z,100283.34
2022-09-12T08:31:20.452Z,100287.89
2022-09-12T08:33:48.155Z,100282.30
2022-09-12T08:36:21.553Z,100283.44
2022-09-12T08:38:50.998Z,100280.60
2022-09-12T08:41:35.224Z,100277.95
2022-09-12T08:44:27.331Z,100276.79
2022-09-12T08:47:06.871Z,100277.34
2022-09-12T08:49:34.232Z,100278.33
2022-09-12T08:52:25.430Z,100282.11
2022-09-12T08:54:52.686Z,100278.99
2022-09-12T08:57:21.066Z,100284.59
2022-09-12T08:59:48.817Z,100283.64
2022-09-12T09:02:25.143Z,100286.95
2022-09-12T09:04:58.898Z,100282.59
2022-09-12T09:07:31.986Z,100278.27
2022-09-12T09:10:09.581Z,100279.54
2022-09-12T09:12:44.038Z,100280.20
2022-09-12T09:15:22.331Z,100284.42
2022-09-12T09:18:02.463Z,100281.34
2022-09-12T09:20:44.465Z,100282.68
2022-09-12T09:23:33.086Z,100287.39
2022-09-12T09:26:08.356Z,100289.22
2022-09-12T09:28:42.776Z,100285.93
2022-09-12T09:31:19.184Z,100285.14
2022-09-12T09:33:57.052Z,100290.44
2022-09-12T09:36:37.297Z,100286.40
2022-09-12T09:39:18.292Z,100287.33
2022-09-12T09:44:49.557Z,100286.59
2022-09-12T09:47:18.448Z,100285.69
2022-09-12T09:49:47.866Z,100285.89
2022-09-12T09:52:18.079Z,100280.80
2022-09-12T09:54:50.494Z,100282.77
2022-09-12T09:57:42.524Z,100279.90
2022-09-12T10:00:32.159Z,100281.11
2022-09-12T10:03:05.241Z,100280.78
2022-09-12T10:05:36.361Z,100281.19
2022-09-12T10:08:05.081Z,100278.20
2022-09-12T10:10:32.246Z,100277.74
2022-09-12T10:13:11.270Z,100274.64
2022-09-12T10:15:39.690Z,100262.42
2022-09-12T10:18:07.606Z,100260.48
2022-09-12T10:20:41.520Z,100259.63
2022-09-12T10:23:33.772Z,100260.64
2022-09-12T10:26:02.748Z,100259.51
2022-09-12T10:28:57.420Z,100261.20
2022-09-12T10:31:30.728Z,100259.77
2022-09-12T10:34:00.029Z,100259.88
2022-09-12T10:36:37.789Z,100258.79
2022-09-12T10:39:06.372Z,100258.30
2022-09-12T10:41:40.585Z,100259.55
2022-09-12T10:44:20.006Z,100259.50
2022-09-12T10:46:47.619Z,100260.41
2022-09-12T10:49:22.944Z,100258.11
2022-09-12T10:51:51.446Z,100258.86
2022-09-12T10:54:20.742Z,100259.61
2022-09-12T10:57:09.703Z,100255.80
2022-09-12T10:59:45.767Z,100259.52
2022-09-12T11:02:29.770Z,100255.14
2022-09-12T11:05:22.590Z,100258.32
2022-09-12T11:07:59.845Z,100255.66
2022-09-12T11:10:49.726Z,100256.52
2022-09-12T11:13:28.249Z,100253.83
2022-09-12T11:16:33.181Z,100251.39
2022-09-12T11:19:11.515Z,100251.33
2022-09-12T11:21:47.810Z,100244.27
2022-09-12T11:24:30.557Z,100247.78
2022-09-12T11:27:26.084Z,100243.07
2022-09-12T11:30:03.368Z,100241.56
2022-09-12T11:32:52.737Z,100246.49
2022-09-12T11:35:28.290Z,100241.16
2022-09-12T11:38:08.767Z,100241.52
2022-09-12T11:40:56.260Z,100239.60
2022-09-12T11:43:57.427Z,100242.25
2022-09-12T11:46:33.067Z,100241.92
2022-09-12T11:49:06.979Z,100243.13
2022-09-12T11:51:54.291Z,100246.69
2022-09-12T11:54:40.824Z,100248.23
2022-09-12T11:57:28.633Z,100243.79
2022-09-12T12:00:05.006Z,100247.31
2022-09-12T12:02:40.318Z,100246.70
2022-09-12T12:05:16.921Z,100239.55
2022-09-12T12:07:53.630Z,100240.95
2022-09-12T12:10:46.546Z,100237.63
2022-09-12T12:13:22.207Z,100233.61
2022-09-12T12:15:52.974Z,100235.85
2022-09-12T12:18:26.632Z,100236.05
2022-09-12T12:20:56.046Z,100234.54
2022-09-12T12:23:29.115Z,100234.16
2022-09-12T12:25:59.353Z,100234.96
2022-09-12T12:28:57.761Z,100235.79
2022-09-12T12:31:25.031Z,100235.83
2022-09-12T12:33:53.732Z,100236.55
2022-09-12T12:36:34.985Z,100232.14
2022-09-12T12:39:34.761Z,100233.31
2022-09-12T12:42:03.977Z,100228.18
2022-09-12T12:44:50.570Z,100227.41
2022-09-12T12:47:26.113Z,100224.48
2022-09-12T12:49:54.178Z,100224.45
2022-09-12T12:52:21.910Z,100227.88
2022-09-12T12:54:52.466Z,100223.80
2022-09-12T12:57:57.201Z,100223.45
2022-09-12T13:00:30.196Z,100225.30
2022-09-12T13:03:25.308Z,100219.77
2022-09-12T13:06:02.286Z,100219.02
2022-09-12T13:08:35.951Z,100222.35
2022-09-12T13:11:15.346Z,100220.21
2022-09-12T13:13:52.532Z,100219.89
2022-09-12T13:16:38.328Z,100215.18
2022-09-12T13:19:18.517Z,100212.43
2022-09-12T13:22:03.746Z,100208.65
2022-09-12T13:24:31.613Z,100211.47
2022-09-12T13:26:59.861Z,100208.46
2022-09-12T13:29:29.069Z,100209.28
2022-09-12T13:31:58.901Z,100208.46
2022-09-12T13:34:27.460Z,100208.50
2022-09-12T13:37:07.108Z,100203.77
2022-09-12T13:39:50.663Z,100202.92
2022-09-12T13:42:41.644Z,100200.27
2022-09-12T13:45:24.869Z,100198.71
2022-09-12T13:48:02.777Z,100199.80
2022-09-12T13:50:39.033Z,100199.66
2022-09-12T13:53:10.270Z,100197.89
2022-09-12T13:55:42.352Z,100194.73
2022-09-12T13:58:30.481Z,100190.72
2022-09-12T14:01:15.385Z,100192.19
2022-09-12T14:04:02.787Z,100189.94
2022-09-12T14:06:57.395Z,100188.08
2022-09-12T14:09:34.281Z,100189.88
2022-09-12T14:12:02.429Z,100188.35
2022-09-12T14:14:37.856Z,100184.58
2022-09-12T14:17:52.426Z,100187.25
2022-09-12T14:20:21.329Z,100184.68
2022-09-12T14:22:51.137Z,100187.34
2022-09-12T14:25:25.537Z,100185.55
2022-09-12T14:27:54.863Z,100184.07
2022-09-12T14:30:30.830Z,100187.51
2022-09-12T14:33:13.126Z,100183.82
2022-09-12T14:35:53.268Z,100182.09
2022-09-12T14:38:25.555Z,100184.64
2022-09-12T14:41:10.736Z,100180.57
2022-09-12T14:43:44.205Z,100182.55
2022-09-12T14:46:25.155Z,100181.94
2022-09-12T14:48:59.492Z,100183.42
2022-09-12T14:51:35.068Z,100181.01
2022-09-12T14:54:03.119Z,100178.92
2022-09-12T14:56:44.988Z,100174.33
2022-09-12T14:59:35.007Z,100176.31
2022-09-12T15:02:14.849Z,100173.96
2022-09-12T15:04:47.844Z,100174.02
2022-09-12T15:07:25.821Z,100171.06
2022-09-12T15:09:53.706Z,100167.63
2022-09-12T15:12:21.162Z,100167.98
2022-09-12T15:14:48.510Z,100171.56
2022-09-12T15:17:17.202Z,100170.98
2022-09-12T15:19:45.044Z,100171.14
2022-09-12T15:22:13.959Z,100171.16
2022-09-12T15:24:41.227Z,100167.52
2022-09-12T15:27:12.568Z,100165.43
2022-09-12T15:29:40.920Z,100161.73
2022-09-12T15:32:15.358Z,100161.19
2022-09-12T15:34:42.908Z,100165.58
2022-09-12T15:37:13.447Z,100163.54
2022-09-12T15:39:41.554Z,100166.45
2022-09-12T15:42:10.289Z,100169.78
2022-09-12T15:44:37.441Z,100172.63
2022-09-12T15:47:06.426Z,100168.98
2022-09-12T15:49:35.947Z,100175.50
2022-09-12T15:52:03.527Z,100174.44
2022-09-12T15:54:31.099Z,100172.13
2022-09-12T15:56:58.527Z,100171.40
2022-09-12T15:59:27.508Z,100171.55
2022-09-12T16:01:55.319Z,100173.84
2022-09-12T16:04:25.130Z,100173.70
2022-09-12T16:06:53.458Z,100176.09
2022-09-12T16:09:21.447Z,100171.95
2022-09-12T16:11:49.085Z,100169.44
2022-09-12T16:14:20.146Z,100173.55
2022-09-12T16:16:54.200Z,100171.46
2022-09-12T16:19:22.239Z,100170.42
2022-09-12T16:21:49.441Z,100166.98
2022-09-12T16:24:16.604Z,100159.86
2022-09-12T16:26:44.087Z,100159.48
2022-09-12T16:29:14.506Z,100159.38
2022-09-12T16:31:42.611Z,100159.05
2022-09-12T16:34:11.578Z,100157.96
2022-09-12T16:36:39.526Z,100160.79
2022-09-12T16:39:07.816Z,100160.64
2022-09-12T16:41:34.968Z,100158.27
2022-09-12T16:44:02.711Z,100154.11
2022-09-12T16:46:30.774Z,100160.99
2022-09-12T16:48:59.288Z,100157.98
2022-09-12T16:51:32.374Z,100156.05
2022-09-12T16:53:59.945Z,100153.95
2022-09-12T16:56:27.378Z,100149.83
2022-09-12T16:58:55.559Z,100154.59
2022-09-12T17:01:24.618Z,100149.39
2022-09-12T17:03:57.533Z,100145.77
2022-09-12T17:06:26.141Z,100144.98
2022-09-12T17:08:54.950Z,100139.09
2022-09-12T17:11:27.896Z,100139.05
2022-09-12T17:14:05.510Z,100136.84
2022-09-12T17:16:39.515Z,100140.10
2022-09-12T17:19:08.380Z,100133.60
2022-09-12T17:21:36.370Z,100134.48
2022-09-12T17:24:04.686Z,100136.39
2022-09-12T17:26:32.213Z,100138.34
2022-09-12T17:28:59.761Z,100137.40
2022-09-12T17:31:28.342Z,100140.91
2022-09-12T17:34:00.126Z,100145.42
2022-09-12T17:36:28.890Z,100145.50
2022-09-12T17:38:57.099Z,100148.58
2022-09-12T17:41:26.710Z,100151.33
2022-09-12T17:43:58.198Z,100149.13
2022-09-12T17:46:31.998Z,100150.77
2022-09-12T17:49:01.550Z,100150.27
2022-09-12T17:51:31.583Z,100154.70
2022-09-12T17:54:11.385Z,100155.26
2022-09-12T17:56:40.275Z,100161.48
2022-09-12T17:59:10.671Z,100160.05
2022-09-12T18:01:57.448Z,100159.19
2022-09-12T18:04:27.183Z,100162.84
2022-09-12T18:06:55.827Z,100165.20
2022-09-12T18:09:25.773Z,100167.31
2022-09-12T18:11:54.567Z,100165.64
2022-09-12T18:14:23.096Z,100167.63
2022-09-12T18:16:52.333Z,100166.40
2022-09-12T18:19:20.473Z,100167.96
2022-09-12T18:21:49.443Z,100167.45
2022-09-12T18:24:17.516Z,100167.69
2022-09-12T18:26:46.129Z,100169.81
2022-09-12T18:29:17.610Z,100167.73
2022-09-12T18:31:46.768Z,100172.77
2022-09-12T18:34:15.550Z,100171.11
2022-09-12T18:36:45.358Z,100168.34
2022-09-12T18:39:13.830Z,100164.58
2022-09-12T18:41:42.041Z,100165.84
2022-09-12T18:44:12.403Z,100164.34
2022-09-12T18:46:40.544Z,100162.91
2022-09-12T18:49:10.528Z,100164.79
2022-09-12T18:51:41.367Z,100160.90
2022-09-12T18:54:14.043Z,100164.89
2022-09-12T18:56:44.776Z,100161.00
2022-09-12T18:59:16.637Z,100158.17
2022-09-12T19:01:44.689Z,100159.61
2022-09-12T19:04:14.472Z,100161.16
2022-09-12T19:06:45.093Z,100160.16
2022-09-12T19:09:15.156Z,100160.65
2022-09-12T19:11:51.420Z,100161.35
2022-09-12T19:14:24.715Z,100158.86
2022-09-12T19:16:53.221Z,100160.14
2022-09-12T19:19:21.679Z,100156.54
2022-09-12T19:21:50.498Z,100158.09
2022-09-12T19:24:18.754Z,100157.14
2022-09-12T19:26:47.547Z,100157.00
2022-09-12T19:29:17.339Z,100157.36
2022-09-12T19:31:45.623Z,100154.77
2022-09-12T19:34:14.604Z,100160.16
2022-09-12T19:36:45.484Z,100152.45
2022-09-12T19:39:14.708Z,100153.74
2022-09-12T19:41:42.107Z,100152.05
2022-09-12T19:44:10.287Z,100151.05
2022-09-12T19:46:37.882Z,100151.27
2022-09-12T19:49:05.491Z,100146.86
2022-09-12T19:51:33.169Z,100144.77
2022-09-12T19:54:01.067Z,100141.38
2022-09-12T19:56:29.775Z,100137.57
2022-09-12T19:58:57.621Z,100135.80
2022-09-12T20:01:28.904Z,100134.69
2022-09-12T20:03:58.734Z,100133.13
2022-09-12T20:06:27.051Z,100131.30
2022-09-12T20:08:55.516Z,100130.85
2022-09-12T20:11:24.045Z,100126.02
2022-09-12T20:13:51.747Z,100124.16
2022-09-12T20:16:25.957Z,100127.08
2022-09-12T20:18:55.439Z,100124.59
2022-09-12T20:21:25.826Z,100126.71
2022-09-12T20:23:53.460Z,100126.18
2022-09-12T20:26:20.875Z,100130.42
2022-09-12T20:28:48.871Z,100133.39
2022-09-12T20:31:17.090Z,100134.69
2022-09-12T20:33:47.578Z,100135.57
2022-09-12T20:36:19.859Z,100131.70
2022-09-12T20:38:49.372Z,100131.24
2022-09-12T20:41:17.479Z,100127.30
2022-09-12T20:43:44.669Z,100129.70
2022-09-12T20:46:12.983Z,100129.39
2022-09-12T20:48:40.500Z,100127.90
2022-09-12T20:51:08.360Z,100123.48
2022-09-12T20:53:35.929Z,100119.93
2022-09-12T20:56:04.300Z,100122.86
2022-09-12T20:58:31.868Z,100118.26
2022-09-12T21:01:03.743Z,100119.75
2022-09-12T21:03:31.287Z,100116.58
2022-09-12T21:05:59.069Z,100116.21
2022-09-12T21:08:26.408Z,100117.23
2022-09-12T21:10:53.866Z,100118.19
2022-09-12T21:13:21.329Z,100118.06
2022-09-12T21:15:48.723Z,100121.90
2022-09-12T21:18:16.027Z,100120.17
2022-09-12T21:20:43.388Z,100122.66
2022-09-12T21:23:10.647Z,100121.91
2022-09-12T21:25:37.981Z,100125.23
2022-09-12T21:28:05.141Z,100125.85
2022-09-12T21:30:32.507Z,100124.03
2022-09-12T21:33:00.062Z,100123.13
2022-09-12T21:35:29.463Z,100124.06
2022-09-12T21:37:56.906Z,100121.94
2022-09-12T21:40:24.312Z,100120.86
2022-09-12T21:42:51.815Z,100122.74
2022-09-12T21:45:19.807Z,100121.47
2022-09-12T21:47:47.567Z,100118.41
2022-09-12T21:50:15.226Z,100117.61
2022-09-12T21:52:42.367Z,100120.63
2022-09-12T21:55:10.346Z,100121.35
2022-09-12T21:57:37.906Z,100119.42
2022-09-12T22:00:08.387Z,100115.33
2022-09-12T22:02:35.572Z,100114.73
2022-09-12T22:05:04.423Z,100114.56
2022-09-12T22:07:31.827Z,100109.88
2022-09-12T22:09:59.287Z,100107.90
2022-09-12T22:12:30.005Z,100106.73
2022-09-12T22:14:57.497Z,100107.38
2022-09-12T22:17:24.835Z,100105.30
2022-09-12T22:19:52.168Z,100106.34
2022-09-12T22:22:38.067Z,100105.52
2022-09-12T22:25:06.149Z,100106.88
2022-09-12T22:27:33.171Z,100105.25
2022-09-12T22:30:00.748Z,100102.33
2022-09-12T22:32:28.002Z,100103.71
2022-09-12T22:34:55.368Z,100099.70
2022-09-12T22:37:22.807Z,100101.79
2022-09-12T22:39:50.197Z,100097.44
2022-09-12T22:42:17.426Z,100098.77
2022-09-12T22:44:44.549Z,100094.36
2022-09-12T22:47:11.921Z,100091.09
2022-09-12T22:49:39.181Z,100088.91
2022-09-12T22:52:06.322Z,100089.60
2022-09-12T22:54:33.562Z,100087.07
2022-09-12T22:57:00.640Z,100086.89
2022-09-12T22:59:27.860Z,100084.14
2022-09-12T23:01:55.120Z,100084.59
2022-09-12T23:04:22.282Z,100082.80
2022-09-12T23:06:50.041Z,100080.14
2022-09-12T23:09:17.501Z,100079.47
2022-09-12T23:11:44.641Z,100075.73
2022-09-12T23:14:11.901Z,100072.60
2022-09-12T23:16:39.513Z,100066.09
2022-09-12T23:19:06.802Z,100060.33
2022-09-12T23:21:34.062Z,100059.67
2022-09-12T23:24:01.204Z,100055.73
2022-09-12T23:26:29.883Z,100056.44
2022-09-12T23:29:02.482Z,100057.91
2022-09-12T23:31:31.781Z,100056.72
2022-09-12T23:34:02.319Z,100048.80
2022-09-12T23:36:30.580Z,100047.76
2022-09-12T23:38:58.534Z,100044.07
2022-09-12T23:41:25.801Z,100042.08
2022-09-12T23:43:53.168Z,100041.37
2022-09-12T23:46:21.219Z,100044.73
2022-09-12T23:48:49.183Z,100044.89
2022-09-12T23:51:16.570Z,100037.27
2022-09-12T23:53:43.894Z,100039.32
2022-09-12T23:56:11.330Z,100036.46
2022-09-12T23:58:38.621Z,100030.77
